Crest Hill, IL (60403)

4:01 PM CDT on August 30, 2015 (GMT -0500)
Warwick Subdivision, Joliet, IL | | Change Station
CLOSE
Current Station
Personal Weather Station
Location: Joliet, IL
Elevation: 591 ft
Nearby Weather Stations

Elev 591 ft 41.55 °N, 88.15 °W | Updated 51 seconds ago

Scattered Clouds
Scattered Clouds
84.1 °F
Feels Like 87 °F
N
2.0
Wind Variable Wind from SSE
Gusts 3.0 mph

Today
High -- | Low -- °F
--% Chance of Precip.
Yesterday
High -- | Low -- °F
Precip. -- in
6:16 AM 7:29 PM
Full, 98% visible
Pressure 30.03 in
Visibility 10.0 miles
Clouds Scattered Clouds 3800 ft
Heat Index 87 °F
Dew Point 68 °F
Humidity 58%
Rainfall 0.00 in
Snow Depth Not available.
UV 4 out of 12
Pollen 9.30 out of 12
Air Quality Not available.
Flu Activity Not available.
METAR KJOT 302055Z AUTO 24003KT 10SM SCT038 26/18 A3003 RMK AO2 T02640182
Pressure 30.03 in
Visibility 10.0 miles
Clouds Scattered Clouds 3800 ft
Heat Index 87 °F
Dew Point 68 °F
Humidity 58%
Rainfall 0.00 in
Snow Depth Not available.
UV 4 out of 12
Pollen 9.30 out of 12
Air Quality Not available.
Flu Activity Not available.
METAR KJOT 302055Z AUTO 24003KT 10SM SCT038 26/18 A3003 RMK AO2 T02640182

10-Day Weather Forecast

×

Almanac

Astronomy

Aug. 30, 2015 Rise Set
Actual Time
Civil Twilight
Nautical Twilight
Astronomical Twilight
Moon
Length of Visible Light
Length of Day
Tomorrow will be .
, % of the Moon is Illuminated

Today's Extremes

State Highs State Lows

Community

WunderPhotos

Upload Photos

1,851,060 photos uploaded!

WunderBlogs® & News

Nearby

Air Quality

  Air Quality AQ Index Pollutant
Not available.

Snow Depth

Station Depth Elevation

Earthquake Activity

City Distance Mag. Time & Date
Minimum magnitude displayed is 2.5.

Coastal Water Temperatures

Place Temperature

Stations

Nearby Weather Stations

Station Location Temp. Windchill Dew Point Humidity Wind Precip. Elev Updated Type